createdAt,value
2022-11-01T18:50:21.260Z,3.63
2022-11-01T18:52:49.409Z,2.58
2022-11-01T18:55:17.711Z,1.80
2022-11-01T18:57:45.793Z,2.45
2022-11-01T19:00:15.711Z,3.72
2022-11-01T19:02:43.978Z,3.33
2022-11-01T19:05:18.282Z,4.10
2022-11-01T19:08:09.449Z,4.35
2022-11-01T19:10:37.475Z,2.17
2022-11-01T19:13:13.572Z,2.97
2022-11-01T19:15:42.038Z,0.93
2022-11-01T19:18:18.736Z,1.80
2022-11-01T19:20:52.916Z,1.88
2022-11-01T19:23:25.706Z,3.20
2022-11-01T19:25:54.076Z,2.92
2022-11-01T19:28:27.631Z,4.35
2022-11-01T19:30:58.506Z,3.42
2022-11-01T19:33:33.681Z,3.58
2022-11-01T19:36:06.786Z,3.63
2022-11-01T19:38:35.566Z,4.43
2022-11-01T19:41:03.847Z,4.20
2022-11-01T19:43:32.025Z,2.80
2022-11-01T19:46:00.140Z,3.08
2022-11-01T19:48:30.863Z,2.92
2022-11-01T19:51:00.128Z,3.08
2022-11-01T19:53:31.344Z,3.03
2022-11-01T19:56:01.075Z,5.88
2022-11-01T19:58:35.824Z,6.90
2022-11-01T20:01:31.706Z,4.47
2022-11-01T20:04:02.433Z,3.28
2022-11-01T20:06:35.310Z,2.83
2022-11-01T20:09:07.192Z,4.15
2022-11-01T20:11:35.392Z,3.63
2022-11-01T20:14:03.559Z,2.47
2022-11-01T20:16:31.924Z,2.60
2022-11-01T20:19:00.137Z,3.00
2022-11-01T20:21:28.805Z,3.30
2022-11-01T20:23:56.908Z,3.05
2022-11-01T20:26:26.430Z,3.10
2022-11-01T20:28:54.658Z,2.15
2022-11-01T20:31:22.828Z,2.90
2022-11-01T20:33:51.152Z,2.35
2022-11-01T20:36:19.277Z,2.88
2022-11-01T20:38:47.593Z,7.50
2022-11-01T20:41:16.082Z,3.42
2022-11-01T20:43:45.654Z,2.88
2022-11-01T20:46:13.795Z,2.70
2022-11-01T20:48:42.021Z,2.90
2022-11-01T20:51:10.390Z,8.27
2022-11-01T20:53:38.738Z,3.95
2022-11-01T20:56:07.706Z,4.90
2022-11-01T20:58:40.544Z,7.03
2022-11-01T21:01:16.252Z,8.60
2022-11-01T21:03:44.908Z,6.18
2022-11-01T21:06:14.890Z,3.20
2022-11-01T21:08:45.004Z,1.98
2022-11-01T21:11:20.944Z,1.90
2022-11-01T21:13:51.900Z,2.47
2022-11-01T21:16:32.252Z,1.75
2022-11-01T21:19:03.319Z,1.05
2022-11-01T21:21:46.276Z,2.67
2022-11-01T21:24:34.062Z,1.20
2022-11-01T21:30:14.047Z,0.70
2022-11-01T21:32:45.536Z,1.77
2022-11-01T21:35:41.766Z,1.77
2022-11-01T21:38:36.834Z,2.05
2022-11-01T21:41:22.405Z,1.45
2022-11-01T21:43:50.743Z,2.42
2022-11-01T21:46:22.486Z,3.58
2022-11-01T21:48:55.125Z,2.80
2022-11-01T21:51:23.185Z,2.15
2022-11-01T21:53:51.414Z,2.50
2022-11-01T21:56:19.849Z,1.02
2022-11-01T21:58:48.091Z,1.58
2022-11-01T22:01:16.410Z,2.08
2022-11-01T22:03:44.675Z,1.05
2022-11-01T22:06:14.532Z,2.05
2022-11-01T22:08:42.733Z,2.08
2022-11-01T22:11:11.003Z,2.55
2022-11-01T22:13:39.112Z,1.30
2022-11-01T22:16:08.826Z,2.15
2022-11-01T22:18:37.394Z,1.45
2022-11-01T22:21:05.777Z,2.38
2022-11-01T22:23:35.394Z,1.40
2022-11-01T22:26:03.582Z,1.23
2022-11-01T22:28:31.706Z,1.48
2022-11-01T22:30:59.899Z,1.52
2022-11-01T22:33:28.927Z,1.52
2022-11-01T22:35:59.079Z,1.38
2022-11-01T22:38:34.757Z,1.52
2022-11-01T22:41:11.564Z,1.20
2022-11-01T22:43:42.233Z,1.85
2022-11-01T22:46:20.595Z,1.67
2022-11-01T22:48:49.847Z,1.63
2022-11-01T22:51:32.874Z,0.98
2022-11-01T22:54:01.430Z,1.52
2022-11-01T22:56:31.370Z,1.00
2022-11-01T22:58:59.493Z,1.55
2022-11-01T23:01:30.640Z,0.90
2022-11-01T23:04:02.520Z,1.90
2022-11-01T23:06:33.059Z,0.90
2022-11-01T23:09:14.303Z,1.35
2022-11-01T23:12:03.170Z,0.85
2022-11-01T23:14:40.078Z,1.40
2022-11-01T23:17:22.209Z,1.73
2022-11-01T23:19:56.712Z,1.17
2022-11-01T23:22:33.022Z,1.17
2022-11-01T23:25:01.172Z,2.28
2022-11-01T23:27:31.232Z,0.93
2022-11-01T23:30:01.820Z,1.75
2022-11-01T23:32:31.006Z,1.73
2022-11-01T23:35:07.637Z,1.08
2022-11-01T23:37:35.844Z,1.73
2022-11-01T23:40:06.413Z,0.82
2022-11-01T23:42:36.250Z,0.98
2022-11-01T23:45:06.283Z,1.50
2022-11-01T23:47:38.715Z,1.13
2022-11-01T23:50:15.067Z,0.90
2022-11-01T23:52:44.861Z,0.40
2022-11-01T23:55:20.583Z,1.33
2022-11-01T23:57:53.234Z,0.77
